createdAt,value
2022-11-02T00:01:44.381Z,15.80
2022-11-02T00:04:10.864Z,15.80
2022-11-02T00:06:37.295Z,15.80
2022-11-02T00:09:03.725Z,15.80
2022-11-02T00:11:30.152Z,15.90
2022-11-02T00:13:56.590Z,15.80
2022-11-02T00:16:23.000Z,15.90
2022-11-02T00:18:49.430Z,15.80
2022-11-02T00:21:15.850Z,15.90
2022-11-02T00:23:42.277Z,15.90
2022-11-02T00:26:08.691Z,15.90
2022-11-02T00:28:35.125Z,15.90
2022-11-02T00:31:01.548Z,15.90
2022-11-02T00:33:27.981Z,15.90
2022-11-02T00:35:54.404Z,15.90
2022-11-02T00:38:20.844Z,15.90
2022-11-02T00:40:47.258Z,15.90
2022-11-02T00:43:13.719Z,15.90
2022-11-02T00:45:40.145Z,15.90
2022-11-02T00:48:06.857Z,15.90
2022-11-02T00:50:33.519Z,15.90
2022-11-02T00:52:59.947Z,15.90
2022-11-02T00:55:26.368Z,15.90
2022-11-02T00:57:52.806Z,15.80
2022-11-02T01:00:19.228Z,15.80
2022-11-02T01:02:45.805Z,15.80
2022-11-02T01:05:12.346Z,15.80
2022-11-02T01:07:38.794Z,15.80
2022-11-02T01:10:05.228Z,15.80
2022-11-02T01:12:31.675Z,15.80
2022-11-02T01:14:58.099Z,15.70
2022-11-02T01:17:24.537Z,15.70
2022-11-02T01:19:50.957Z,15.70
2022-11-02T01:22:17.413Z,15.70
2022-11-02T01:24:43.870Z,15.60
2022-11-02T01:27:10.296Z,15.60
2022-11-02T01:29:36.745Z,15.60
2022-11-02T01:32:03.184Z,15.50
2022-11-02T01:34:29.639Z,15.50
2022-11-02T01:36:56.061Z,15.40
2022-11-02T01:39:22.502Z,15.40
2022-11-02T01:41:48.925Z,15.30
2022-11-02T01:44:15.361Z,15.30
2022-11-02T01:46:41.790Z,15.30
2022-11-02T01:49:08.218Z,15.30
2022-11-02T01:51:34.659Z,15.30
2022-11-02T01:54:01.113Z,15.30
2022-11-02T01:56:27.540Z,15.30
2022-11-02T01:58:53.972Z,15.30
2022-11-02T02:01:20.511Z,15.30
2022-11-02T02:03:47.012Z,15.30
2022-11-02T02:06:13.447Z,15.30
2022-11-02T02:08:39.904Z,15.40
2022-11-02T02:11:06.324Z,15.30
2022-11-02T02:13:32.772Z,15.30
2022-11-02T02:15:59.202Z,15.40
2022-11-02T02:18:25.635Z,15.30
2022-11-02T02:20:52.062Z,15.20
2022-11-02T02:23:18.478Z,15.10
2022-11-02T02:25:44.908Z,14.90
2022-11-02T02:28:11.327Z,14.70
2022-11-02T02:30:37.766Z,14.60
2022-11-02T02:33:04.200Z,14.50
2022-11-02T02:35:30.644Z,14.40
2022-11-02T02:37:57.081Z,14.30
2022-11-02T02:40:23.519Z,14.20
2022-11-02T02:42:49.956Z,14.10
2022-11-02T02:45:16.396Z,14.10
2022-11-02T02:47:42.825Z,14.00
2022-11-02T02:50:09.266Z,13.90
2022-11-02T02:52:35.717Z,13.90
2022-11-02T02:55:02.138Z,13.80
2022-11-02T02:57:28.564Z,13.80
2022-11-02T02:59:54.976Z,13.70
2022-11-02T03:02:21.538Z,13.70
2022-11-02T03:04:48.018Z,13.70
2022-11-02T03:07:14.460Z,13.70
2022-11-02T03:09:40.893Z,13.70
2022-11-02T03:12:07.352Z,13.70
2022-11-02T03:14:33.802Z,13.70
2022-11-02T03:17:00.430Z,13.60
2022-11-02T03:19:27.017Z,13.60
2022-11-02T03:21:53.439Z,13.60
2022-11-02T03:24:19.862Z,13.50
2022-11-02T03:26:46.328Z,13.50
2022-11-02T03:29:12.776Z,13.50
2022-11-02T03:31:39.232Z,13.50
2022-11-02T03:34:05.648Z,13.50
2022-11-02T03:36:32.087Z,13.40
2022-11-02T03:38:58.509Z,13.40
2022-11-02T03:41:24.939Z,13.40
2022-11-02T03:43:51.367Z,13.30
2022-11-02T03:46:17.789Z,13.30
2022-11-02T03:48:44.223Z,13.30
2022-11-02T03:51:10.646Z,13.30
2022-11-02T03:53:37.087Z,13.30
2022-11-02T03:56:03.498Z,13.30
2022-11-02T03:58:29.934Z,13.30
2022-11-02T04:00:56.528Z,13.30
2022-11-02T04:03:22.963Z,13.30
2022-11-02T04:05:49.423Z,13.30
2022-11-02T04:08:15.871Z,13.30
2022-11-02T04:10:42.305Z,13.30
2022-11-02T04:13:08.744Z,13.30
2022-11-02T04:15:35.180Z,13.30
2022-11-02T04:18:01.759Z,13.30
2022-11-02T04:20:28.381Z,13.30
2022-11-02T04:22:54.822Z,13.30
2022-11-02T04:25:21.263Z,13.30
2022-11-02T04:27:47.708Z,13.30
2022-11-02T04:30:14.198Z,13.30
2022-11-02T04:32:40.628Z,13.30
2022-11-02T04:35:07.074Z,13.30
2022-11-02T04:37:33.503Z,13.30
2022-11-02T04:39:59.956Z,13.30
2022-11-02T04:42:26.392Z,13.30
2022-11-02T04:44:52.839Z,13.30
2022-11-02T04:47:19.254Z,13.30
2022-11-02T04:49:45.691Z,13.40
2022-11-02T04:52:12.105Z,13.40
2022-11-02T04:54:38.541Z,13.40
2022-11-02T04:57:04.955Z,13.50
2022-11-02T04:59:31.385Z,13.50
2022-11-02T05:01:57.866Z,13.50
2022-11-02T05:04:24.428Z,13.60
2022-11-02T05:06:50.868Z,13.60
2022-11-02T05:09:17.319Z,13.60
2022-11-02T05:11:43.772Z,13.70
2022-11-02T05:14:10.213Z,13.70
2022-11-02T05:16:36.654Z,13.70
2022-11-02T05:19:04.573Z,13.70
2022-11-02T05:21:33.421Z,13.70
2022-11-02T05:23:59.855Z,13.70
2022-11-02T05:26:26.282Z,13.70
2022-11-02T05:28:52.721Z,13.70
2022-11-02T05:31:19.182Z,13.70
2022-11-02T05:33:45.605Z,13.70
2022-11-02T05:36:12.044Z,13.70
2022-11-02T05:41:05.832Z,13.70
2022-11-02T05:43:32.258Z,13.70
2022-11-02T05:45:58.706Z,13.80
2022-11-02T05:48:25.129Z,13.80
2022-11-02T05:50:51.578Z,13.80
2022-11-02T05:53:18.025Z,13.80
2022-11-02T05:55:44.477Z,13.90
2022-11-02T05:58:10.904Z,13.90
2022-11-02T06:00:37.341Z,13.90
2022-11-02T06:03:04.162Z,14.00
2022-11-02T06:05:30.834Z,14.00
2022-11-02T06:07:57.280Z,14.00
2022-11-02T06:10:23.721Z,14.00
2022-11-02T06:12:50.130Z,14.00
2022-11-02T06:15:16.580Z,14.00
2022-11-02T06:17:42.998Z,14.00
2022-11-02T06:20:09.451Z,14.00
2022-11-02T06:22:35.862Z,14.00
2022-11-02T06:25:02.327Z,14.00
2022-11-02T06:27:28.738Z,14.00
2022-11-02T06:29:55.175Z,14.00
2022-11-02T06:32:21.590Z,13.90
2022-11-02T06:34:48.002Z,13.90
2022-11-02T06:37:14.440Z,13.90
2022-11-02T06:39:40.874Z,13.90
2022-11-02T06:42:07.306Z,13.90
2022-11-02T06:44:33.729Z,13.90
2022-11-02T06:47:00.165Z,13.90
2022-11-02T06:49:26.594Z,13.90
2022-11-02T06:51:53.030Z,13.90
2022-11-02T06:54:19.469Z,13.90
2022-11-02T06:56:45.898Z,13.90
2022-11-02T06:59:12.319Z,13.90
2022-11-02T07:01:38.911Z,14.00
2022-11-02T07:04:05.454Z,14.00
2022-11-02T07:06:31.889Z,14.00
2022-11-02T07:08:59.405Z,14.00
2022-11-02T07:11:25.860Z,14.00
2022-11-02T07:13:52.292Z,14.00
2022-11-02T07:16:18.734Z,14.00
2022-11-02T07:18:45.146Z,14.00
2022-11-02T07:21:11.607Z,14.00
2022-11-02T07:23:38.051Z,14.00
2022-11-02T07:26:04.509Z,13.90
2022-11-02T07:28:30.945Z,13.90
2022-11-02T07:30:57.391Z,13.90
2022-11-02T07:33:23.834Z,13.90
2022-11-02T07:35:50.351Z,13.90
2022-11-02T07:38:16.774Z,13.90
2022-11-02T07:40:43.234Z,13.90
2022-11-02T07:43:09.888Z,14.00
2022-11-02T07:45:36.451Z,14.00
2022-11-02T07:48:02.889Z,14.10
2022-11-02T07:50:29.318Z,14.10
2022-11-02T07:52:55.768Z,14.10
2022-11-02T07:55:22.203Z,14.10
2022-11-02T07:57:48.649Z,14.10
2022-11-02T08:00:15.079Z,14.10
2022-11-02T08:02:41.582Z,14.10
2022-11-02T08:05:08.051Z,14.20
2022-11-02T08:07:34.483Z,14.30
2022-11-02T08:10:00.929Z,14.30
2022-11-02T08:12:27.363Z,14.30
2022-11-02T08:14:53.782Z,14.40
2022-11-02T08:17:20.211Z,14.40
2022-11-02T08:19:46.628Z,14.50
2022-11-02T08:22:13.067Z,14.50
2022-11-02T08:24:39.479Z,14.50
2022-11-02T08:27:05.911Z,14.50
2022-11-02T08:29:32.335Z,14.50
2022-11-02T08:31:58.784Z,14.50
2022-11-02T08:34:25.213Z,14.60
2022-11-02T08:36:51.642Z,14.60
2022-11-02T08:39:19.210Z,14.50
2022-11-02T08:41:45.761Z,14.50
2022-11-02T08:44:12.176Z,14.50
2022-11-02T08:46:38.649Z,14.60
2022-11-02T08:49:05.089Z,14.60
2022-11-02T08:51:31.551Z,14.70
2022-11-02T08:53:57.984Z,14.90
2022-11-02T08:56:24.423Z,15.00
2022-11-02T08:58:50.856Z,15.10
2022-11-02T09:01:17.405Z,15.20
2022-11-02T09:03:43.917Z,15.20
2022-11-02T09:06:10.362Z,15.30
2022-11-02T09:08:36.812Z,15.40
2022-11-02T09:11:03.229Z,15.50
2022-11-02T09:13:29.766Z,15.40
2022-11-02T09:15:56.258Z,15.30
2022-11-02T09:18:22.719Z,15.30
2022-11-02T09:20:49.145Z,15.50
2022-11-02T09:23:15.591Z,15.60
2022-11-02T09:25:42.033Z,15.90
2022-11-02T09:28:08.863Z,16.00
2022-11-02T09:30:35.530Z,16.10
2022-11-02T09:33:02.220Z,16.00
2022-11-02T09:35:28.838Z,15.90
2022-11-02T09:37:55.288Z,16.00
2022-11-02T09:40:21.771Z,16.00
2022-11-02T09:42:48.254Z,16.20
2022-11-02T09:45:14.688Z,16.20
2022-11-02T09:48:24.948Z,16.30
2022-11-02T09:52:58.884Z,16.30
2022-11-02T09:55:25.296Z,16.30
2022-11-02T09:57:51.741Z,16.30
2022-11-02T10:00:18.167Z,16.30
2022-11-02T10:02:44.675Z,16.30
2022-11-02T10:05:11.170Z,16.30
2022-11-02T10:07:37.603Z,16.20
2022-11-02T10:10:04.051Z,16.10
2022-11-02T10:12:30.471Z,16.10
2022-11-02T10:14:57.011Z,16.10
2022-11-02T10:17:23.421Z,16.10
2022-11-02T10:19:49.847Z,16.10
2022-11-02T10:22:16.272Z,16.10
2022-11-02T10:24:42.730Z,16.20
2022-11-02T10:27:13.128Z,16.20
2022-11-02T10:29:40.609Z,16.20
2022-11-02T10:32:07.027Z,16.20
2022-11-02T10:34:33.458Z,16.40
2022-11-02T10:36:59.895Z,16.60
2022-11-02T10:39:26.333Z,16.70
2022-11-02T10:41:52.773Z,16.80
2022-11-02T10:44:19.215Z,16.90
2022-11-02T10:46:45.635Z,16.90
2022-11-02T10:49:12.092Z,16.90
2022-11-02T10:51:38.512Z,16.80
2022-11-02T10:56:32.285Z,16.90
2022-11-02T10:58:58.729Z,16.80
2022-11-02T11:01:25.246Z,16.80
2022-11-02T11:03:51.780Z,16.80
2022-11-02T11:06:18.222Z,16.80
2022-11-02T11:08:44.662Z,16.80
2022-11-02T11:11:11.120Z,16.70
2022-11-02T11:16:26.478Z,16.60
2022-11-02T11:21:39.539Z,16.50
2022-11-02T11:24:05.980Z,16.40
2022-11-02T11:26:32.459Z,16.40
2022-11-02T11:28:58.907Z,16.40
2022-11-02T11:31:25.351Z,16.30
2022-11-02T11:33:51.803Z,16.30
2022-11-02T11:36:18.257Z,16.30
2022-11-02T11:38:44.705Z,16.20
2022-11-02T11:41:11.149Z,16.20
2022-11-02T11:43:37.597Z,16.20
2022-11-02T11:46:06.472Z,16.20
2022-11-02T11:48:33.375Z,16.20
2022-11-02T11:50:59.813Z,16.20
2022-11-02T11:53:26.536Z,16.20
2022-11-02T11:55:52.964Z,16.20
2022-11-02T11:58:19.403Z,16.30
2022-11-02T12:00:45.845Z,16.30
2022-11-02T12:03:12.333Z,16.30
2022-11-02T12:05:38.835Z,16.30
2022-11-02T12:08:05.404Z,16.30
2022-11-02T12:10:31.998Z,16.30
2022-11-02T12:12:58.443Z,16.30
2022-11-02T12:15:24.896Z,16.40
2022-11-02T12:17:51.339Z,16.40
2022-11-02T12:20:17.793Z,16.40
2022-11-02T12:22:44.233Z,16.30
2022-11-02T12:25:10.692Z,16.30
2022-11-02T12:27:37.129Z,16.20
2022-11-02T12:30:03.591Z,16.20
2022-11-02T12:32:30.037Z,16.20
2022-11-02T12:35:23.132Z,16.30
2022-11-02T12:37:42.893Z,16.30
2022-11-02T12:40:09.409Z,16.30
2022-11-02T12:42:39.225Z,16.30
2022-11-02T12:45:09.448Z,16.30
2022-11-02T12:47:35.863Z,16.20
2022-11-02T12:50:02.275Z,16.20
2022-11-02T12:52:28.706Z,16.20
2022-11-02T12:54:55.131Z,16.20
2022-11-02T12:57:21.575Z,16.20
2022-11-02T12:59:47.989Z,16.20
2022-11-02T13:02:14.469Z,16.20
2022-11-02T13:04:40.908Z,16.20
2022-11-02T13:07:07.328Z,16.20
2022-11-02T13:09:33.776Z,16.20
2022-11-02T13:12:00.219Z,16.20
2022-11-02T13:14:26.667Z,16.20
2022-11-02T13:16:53.180Z,16.20
2022-11-02T13:19:19.629Z,16.20
2022-11-02T13:21:46.083Z,16.30
2022-11-02T13:24:12.507Z,16.30
2022-11-02T13:26:38.957Z,16.30
2022-11-02T13:29:05.414Z,16.30
2022-11-02T13:31:31.837Z,16.30
2022-11-02T13:33:58.278Z,16.30
2022-11-02T13:36:24.723Z,16.30
2022-11-02T13:38:51.147Z,16.30
2022-11-02T13:41:17.597Z,16.30
2022-11-02T13:43:44.030Z,16.30
2022-11-02T13:46:10.469Z,16.20
2022-11-02T13:48:36.899Z,16.20
2022-11-02T13:51:03.336Z,16.20
2022-11-02T13:53:29.756Z,16.20
2022-11-02T13:55:56.195Z,16.20
2022-11-02T13:58:22.606Z,16.20
2022-11-02T14:00:49.030Z,16.20
2022-11-02T14:03:15.532Z,16.20
2022-11-02T14:05:41.983Z,16.20
2022-11-02T14:08:08.594Z,16.20
2022-11-02T14:10:35.292Z,16.20
2022-11-02T14:13:01.857Z,16.20
2022-11-02T14:15:28.385Z,16.20
2022-11-02T14:17:54.836Z,16.20
2022-11-02T14:20:21.278Z,16.10
2022-11-02T14:22:47.727Z,16.10
2022-11-02T14:25:14.156Z,16.10
2022-11-02T14:27:40.605Z,16.00
2022-11-02T14:30:07.043Z,16.00
2022-11-02T14:32:33.481Z,16.00
2022-11-02T14:34:59.902Z,16.00
2022-11-02T14:37:26.342Z,16.00
2022-11-02T14:39:52.768Z,16.00
2022-11-02T14:42:19.192Z,16.00
2022-11-02T14:44:45.635Z,16.00
2022-11-02T14:47:12.061Z,16.00
2022-11-02T14:49:38.516Z,16.00
2022-11-02T14:52:05.039Z,15.90
2022-11-02T14:54:31.503Z,15.90
2022-11-02T14:56:57.936Z,15.90
2022-11-02T14:59:24.400Z,15.80
2022-11-02T15:01:50.829Z,15.80
2022-11-02T15:04:17.303Z,15.80
2022-11-02T15:06:43.789Z,15.80
2022-11-02T15:09:10.255Z,15.70
2022-11-02T15:11:36.680Z,15.70
2022-11-02T15:14:03.119Z,15.70
2022-11-02T15:16:29.571Z,15.70
2022-11-02T15:18:56.013Z,15.70
2022-11-02T15:21:22.448Z,15.60
2022-11-02T15:23:48.889Z,15.60
2022-11-02T15:26:15.303Z,15.50
2022-11-02T15:28:42.131Z,15.50
2022-11-02T15:31:08.571Z,15.50
2022-11-02T15:33:34.998Z,15.50
2022-11-02T15:36:01.434Z,15.40
2022-11-02T15:38:32.544Z,15.40
2022-11-02T15:41:05.693Z,15.40
2022-11-02T15:43:32.627Z,15.30
2022-11-02T15:46:04.844Z,15.30
2022-11-02T15:48:34.681Z,15.20
2022-11-02T15:51:01.114Z,15.10
2022-11-02T15:53:27.537Z,15.10
2022-11-02T15:55:53.975Z,15.00
2022-11-02T15:58:20.402Z,15.00
2022-11-02T16:00:46.888Z,14.90
2022-11-02T16:03:13.360Z,14.90
2022-11-02T16:05:39.782Z,14.80
2022-11-02T16:08:10.894Z,14.80
2022-11-02T16:10:37.626Z,14.70
2022-11-02T16:13:04.057Z,14.70
2022-11-02T16:15:30.482Z,14.70
2022-11-02T16:17:56.928Z,14.60
2022-11-02T16:20:23.343Z,14.60
2022-11-02T16:22:49.766Z,14.50
2022-11-02T16:25:16.201Z,14.50
2022-11-02T16:27:42.648Z,14.50
2022-11-02T16:30:09.076Z,14.40
2022-11-02T16:32:35.492Z,14.40
2022-11-02T16:35:01.931Z,14.40
2022-11-02T16:37:28.350Z,14.30
2022-11-02T16:39:54.802Z,14.30
2022-11-02T16:42:21.226Z,14.20
2022-11-02T16:44:47.666Z,14.20
2022-11-02T16:47:14.107Z,14.10
2022-11-02T16:49:40.548Z,14.10
2022-11-02T16:52:06.989Z,14.10
2022-11-02T16:54:33.448Z,14.10
2022-11-02T16:56:59.889Z,14.00
2022-11-02T16:59:26.330Z,14.00
2022-11-02T17:01:52.835Z,14.00
2022-11-02T17:04:19.349Z,13.90
2022-11-02T17:06:45.791Z,13.90
2022-11-02T17:09:12.225Z,13.90
2022-11-02T17:11:38.662Z,13.80
2022-11-02T17:14:05.105Z,13.80
2022-11-02T17:16:31.558Z,13.80
2022-11-02T17:18:58.004Z,13.80
2022-11-02T17:21:24.456Z,13.80
2022-11-02T17:23:50.878Z,13.70
2022-11-02T17:26:17.335Z,13.70
2022-11-02T17:28:43.751Z,13.70
2022-11-02T17:31:10.211Z,13.70
2022-11-02T17:33:36.632Z,13.70
2022-11-02T17:36:03.081Z,13.60
2022-11-02T17:38:29.515Z,13.60
2022-11-02T17:40:55.959Z,13.60
2022-11-02T17:43:22.407Z,13.60
2022-11-02T17:45:48.846Z,13.60
2022-11-02T17:48:15.262Z,13.60
2022-11-02T17:50:41.698Z,13.60
2022-11-02T17:53:08.129Z,13.60
2022-11-02T17:55:34.555Z,13.60
2022-11-02T17:58:01.001Z,13.60
2022-11-02T18:00:27.427Z,13.60
2022-11-02T18:02:53.847Z,13.60
2022-11-02T18:05:20.273Z,13.60
2022-11-02T18:07:46.716Z,13.60
2022-11-02T18:10:13.134Z,13.60
2022-11-02T18:12:39.575Z,13.60
2022-11-02T18:15:06.016Z,13.50
2022-11-02T18:17:34.908Z,13.60
2022-11-02T18:20:01.652Z,13.60
2022-11-02T18:22:28.107Z,13.60
2022-11-02T18:24:54.544Z,13.50
2022-11-02T18:27:23.693Z,13.50
2022-11-02T18:29:51.355Z,13.50
2022-11-02T18:32:17.797Z,13.50
2022-11-02T18:34:44.238Z,13.50
2022-11-02T18:37:10.677Z,13.50
2022-11-02T18:39:37.112Z,13.50
2022-11-02T18:42:03.553Z,13.40
2022-11-02T18:44:29.972Z,13.40
2022-11-02T18:46:56.395Z,13.40
2022-11-02T18:49:22.813Z,13.40
2022-11-02T18:51:49.261Z,13.40
2022-11-02T18:54:15.695Z,13.40
2022-11-02T18:56:42.135Z,13.40
2022-11-02T18:59:08.581Z,13.30
2022-11-02T19:01:35.173Z,13.40
2022-11-02T19:04:01.727Z,13.30
2022-11-02T19:06:28.168Z,13.30
2022-11-02T19:08:54.617Z,13.30
2022-11-02T19:11:21.027Z,13.30
2022-11-02T19:13:47.469Z,13.30
2022-11-02T19:16:13.898Z,13.30
2022-11-02T19:18:40.347Z,13.30
2022-11-02T19:21:06.791Z,13.30
2022-11-02T19:23:33.226Z,13.30
2022-11-02T19:25:59.669Z,13.30
2022-11-02T19:28:26.120Z,13.30
2022-11-02T19:30:52.549Z,13.30
2022-11-02T19:33:18.992Z,13.30
2022-11-02T19:35:45.408Z,13.30
2022-11-02T19:38:11.842Z,13.30
2022-11-02T19:40:38.254Z,13.30
2022-11-02T19:43:04.990Z,13.30
2022-11-02T19:45:31.573Z,13.30
2022-11-02T19:47:57.994Z,13.30
2022-11-02T19:50:24.406Z,13.30
2022-11-02T19:52:50.831Z,13.30
2022-11-02T19:55:17.254Z,13.40
2022-11-02T19:57:43.684Z,13.30
2022-11-02T20:00:10.117Z,13.40
2022-11-02T20:02:36.581Z,13.30
2022-11-02T20:05:03.079Z,13.30
2022-11-02T20:07:29.513Z,13.40
2022-11-02T20:09:58.761Z,13.30
2022-11-02T20:12:26.261Z,13.30
2022-11-02T20:14:52.686Z,13.30
2022-11-02T20:17:31.340Z,13.30
2022-11-02T20:20:01.814Z,13.30
2022-11-02T20:22:28.238Z,13.40
2022-11-02T20:24:54.712Z,13.30
2022-11-02T20:27:21.167Z,13.30
2022-11-02T20:29:47.643Z,13.30
2022-11-02T20:32:14.076Z,13.30
2022-11-02T20:34:40.537Z,13.40
2022-11-02T20:37:06.972Z,13.30
2022-11-02T20:39:33.417Z,13.40
2022-11-02T20:41:59.836Z,13.40
2022-11-02T20:44:26.286Z,13.40
2022-11-02T20:46:53.459Z,13.40
2022-11-02T20:49:22.781Z,13.40
2022-11-02T20:51:55.684Z,13.40
2022-11-02T20:54:22.143Z,13.40
2022-11-02T20:56:48.577Z,13.40
2022-11-02T20:59:15.039Z,13.40
2022-11-02T21:01:41.685Z,13.40
2022-11-02T21:04:08.235Z,13.40
2022-11-02T21:06:34.691Z,13.40
2022-11-02T21:09:01.128Z,13.40
2022-11-02T21:11:27.551Z,13.40
2022-11-02T21:13:53.989Z,13.40
2022-11-02T21:16:20.474Z,13.40
2022-11-02T21:18:46.921Z,13.40
2022-11-02T21:21:13.366Z,13.40
2022-11-02T21:23:39.791Z,13.40
2022-11-02T21:26:06.234Z,13.40
2022-11-02T21:28:32.728Z,13.40
2022-11-02T21:30:59.268Z,13.40
2022-11-02T21:33:25.698Z,13.40
2022-11-02T21:35:52.145Z,13.40
2022-11-02T21:38:18.584Z,13.40
2022-11-02T21:40:45.040Z,13.40
2022-11-02T21:43:11.493Z,13.40
2022-11-02T21:45:38.352Z,13.40
2022-11-02T21:48:04.814Z,13.40
2022-11-02T21:50:31.250Z,13.40
2022-11-02T21:52:57.696Z,13.40
2022-11-02T21:55:24.146Z,13.40
2022-11-02T21:57:50.585Z,13.40
2022-11-02T22:00:17.019Z,13.40
2022-11-02T22:02:43.569Z,13.40
2022-11-02T22:05:10.065Z,13.40
2022-11-02T22:07:36.477Z,13.40
2022-11-02T22:10:02.917Z,13.40
2022-11-02T22:12:29.330Z,13.40
2022-11-02T22:14:55.764Z,13.40
2022-11-02T22:17:47.966Z,13.40
2022-11-02T22:20:08.614Z,13.40
2022-11-02T22:22:35.032Z,13.40
2022-11-02T22:25:01.475Z,13.40
2022-11-02T22:27:27.898Z,13.40
2022-11-02T22:29:54.329Z,13.40
2022-11-02T22:32:20.765Z,13.40
2022-11-02T22:34:47.196Z,13.40
2022-11-02T22:37:13.663Z,13.40
2022-11-02T22:39:40.091Z,13.40
2022-11-02T22:42:06.537Z,13.40
2022-11-02T22:44:32.970Z,13.40
2022-11-02T22:46:59.408Z,13.40
2022-11-02T22:49:25.857Z,13.40
2022-11-02T22:51:52.304Z,13.40
2022-11-02T22:54:18.733Z,13.40
2022-11-02T22:56:45.150Z,13.40
2022-11-02T22:59:11.588Z,13.40
2022-11-02T23:01:38.092Z,13.40
2022-11-02T23:04:04.619Z,13.40
2022-11-02T23:06:31.043Z,13.40
2022-11-02T23:08:57.475Z,13.40
2022-11-02T23:11:23.944Z,13.40
2022-11-02T23:13:50.418Z,13.40
2022-11-02T23:16:16.839Z,13.40
2022-11-02T23:18:43.298Z,13.40
2022-11-02T23:21:09.715Z,13.30
2022-11-02T23:23:36.160Z,13.30
2022-11-02T23:26:02.603Z,13.30
2022-11-02T23:28:29.046Z,13.30
2022-11-02T23:30:55.471Z,13.30
2022-11-02T23:33:21.905Z,13.30
2022-11-02T23:35:48.340Z,13.30
2022-11-02T23:38:14.772Z,13.30
2022-11-02T23:40:41.222Z,13.30
2022-11-02T23:43:07.919Z,13.30
2022-11-02T23:45:34.551Z,13.30
2022-11-02T23:48:01.292Z,13.30
2022-11-02T23:50:27.903Z,13.30
2022-11-02T23:52:54.332Z,13.20
2022-11-02T23:55:20.776Z,13.20
2022-11-02T23:57:47.196Z,13.30
